Time;durP1;ratioP1;P1;durP2;ratioP2;P2;SDS_P1;SDS_P2;PMS_P1;PMS_P2;Temp;Humidity;BMP_temperature;BMP_pressure;BME280_temperature;BME280_humidity;BME280_pressure;Samples;Min_cycle;Max_cycle;Signal;HPM_P1;HPM_P2
2021/08/01 00:02:10;;;;;;;6.35;3.25;;;;;;;16.90;57.13;99251.81;10338885;28;20104;-60
2021/08/01 00:07:12;;;;;;;5.25;3.20;;;;;;;16.64;57.45;99252.63;10347985;28;20069;-60
2021/08/01 00:12:15;;;;;;;5.07;3.10;;;;;;;16.66;58.09;99256.81;10352160;28;20077;-60
2021/08/01 00:17:17;;;;;;;6.35;2.97;;;;;;;16.79;57.57;99249.34;10368706;28;20749;-60
2021/08/01 00:22:20;;;;;;;8.43;3.00;;;;;;;16.86;57.43;99250.44;10365985;28;20540;-60
2021/08/01 00:27:21;;;;;;;5.03;3.10;;;;;;;16.95;57.33;99246.09;10352842;28;20089;-60
2021/08/01 00:32:23;;;;;;;6.03;3.50;;;;;;;16.92;57.37;99249.84;10367985;28;20046;-60
2021/08/01 00:37:25;;;;;;;5.43;3.10;;;;;;;16.92;57.44;99225.22;10366775;28;20042;-60
2021/08/01 00:42:27;;;;;;;7.63;3.40;;;;;;;16.87;57.49;99227.50;10367403;28;20050;-60
2021/08/01 00:47:28;;;;;;;8.85;3.70;;;;;;;16.84;57.68;99238.34;10367502;28;20512;-60
2021/08/01 00:52:30;;;;;;;6.53;3.22;;;;;;;16.78;57.71;99223.94;10349631;28;20137;-60
2021/08/01 00:57:32;;;;;;;7.05;3.42;;;;;;;16.75;57.95;99229.50;10354494;28;20057;-59
2021/08/01 01:02:37;;;;;;;4.65;2.88;;;;;;;16.58;58.62;99213.63;10366424;28;20076;-60
2021/08/01 01:08:11;;;;;;;7.00;3.22;;;;;;;16.41;58.89;99209.06;10366508;28;20052;-60
2021/08/01 01:13:18;;;;;;;5.65;3.10;;;;;;;16.45;58.57;99210.47;10364565;28;20470;-60
2021/08/01 01:18:27;;;;;;;8.88;3.13;;;;;;;16.51;58.56;99204.66;10365200;28;20069;-60
2021/08/01 01:23:45;;;;;;;6.30;3.25;;;;;;;16.50;58.75;99213.53;10365937;28;20161;-60
2021/08/01 01:29:24;;;;;;;6.28;3.13;;;;;;;16.45;58.89;99207.84;10364314;28;20153;-60
2021/08/01 01:34:39;;;;;;;6.88;3.08;;;;;;;16.32;58.78;99208.16;10355571;28;20133;-60
2021/08/01 01:39:42;;;;;;;8.90;3.22;;;;;;;16.28;59.13;99204.16;10364490;28;20068;-60
2021/08/01 01:44:45;;;;;;;6.28;3.03;;;;;;;16.35;58.79;99209.66;10363334;28;20125;-60
2021/08/01 01:49:49;;;;;;;5.78;2.90;;;;;;;16.42;58.68;99201.03;10364569;28;20072;-60
2021/08/01 01:54:52;;;;;;;5.75;3.53;;;;;;;16.35;58.73;99197.31;10363900;28;20556;-60
2021/08/01 01:59:55;;;;;;;6.22;3.30;;;;;;;16.34;58.87;99208.00;10365032;28;20050;-60
2021/08/01 02:04:56;;;;;;;6.53;3.40;;;;;;;16.33;59.00;99208.97;10371666;28;20050;-60
2021/08/01 02:10:12;;;;;;;5.00;2.92;;;;;;;16.32;59.25;99220.53;10370976;28;20076;-60
2021/08/01 02:15:19;;;;;;;6.03;3.33;;;;;;;16.29;59.12;99215.50;10368896;28;20168;-60
2021/08/01 02:20:28;;;;;;;5.28;2.78;;;;;;;16.23;59.20;99219.56;10348741;28;20074;-60
2021/08/01 02:25:30;;;;;;;8.32;3.20;;;;;;;16.25;59.08;99220.25;10371154;28;20069;-60
2021/08/01 02:30:32;;;;;;;6.75;3.03;;;;;;;16.12;59.04;99219.78;10371550;28;20153;-60
2021/08/01 02:35:35;;;;;;;6.22;3.05;;;;;;;16.17;59.09;99223.63;10371304;28;20054;-60
2021/08/01 02:40:38;;;;;;;7.07;3.20;;;;;;;16.18;59.05;99216.56;10365812;28;20085;-60
2021/08/01 02:45:42;;;;;;;6.13;3.15;;;;;;;16.10;59.36;99211.16;10369896;28;20128;-60
2021/08/01 02:50:48;;;;;;;6.80;3.13;;;;;;;15.96;59.58;99215.06;10369800;28;20103;-60
2021/08/01 02:55:53;;;;;;;5.93;3.42;;;;;;;15.98;59.47;99213.13;10368839;28;20104;-60
2021/08/01 03:00:55;;;;;;;5.65;3.05;;;;;;;15.85;59.85;99209.97;10370511;28;20080;-60
2021/08/01 03:05:59;;;;;;;5.57;3.17;;;;;;;15.80;60.00;99212.19;10365096;28;20042;-60
2021/08/01 03:11:00;;;;;;;5.65;3.30;;;;;;;15.72;60.34;99204.16;10363430;28;20120;-60
2021/08/01 03:16:02;;;;;;;7.65;3.60;;;;;;;15.70;60.40;99203.47;10358123;28;20113;-59
2021/08/01 03:21:04;;;;;;;6.88;3.58;;;;;;;15.60;60.67;99210.56;10367531;28;20080;-60
2021/08/01 03:26:06;;;;;;;6.53;3.30;;;;;;;15.38;60.99;99203.78;10371313;28;20558;-60
2021/08/01 03:31:07;;;;;;;7.10;3.55;;;;;;;15.43;61.02;99208.59;10371188;28;20134;-60
2021/08/01 03:36:09;;;;;;;8.15;3.45;;;;;;;15.46;60.67;99232.06;10370472;28;20548;-60
2021/08/01 03:41:11;;;;;;;6.75;3.30;;;;;;;15.52;60.86;99226.25;10370094;28;20129;-60
2021/08/01 03:46:12;;;;;;;4.95;3.53;;;;;;;15.59;60.48;99221.25;10360698;28;20053;-59
2021/08/01 03:51:14;;;;;;;5.95;3.50;;;;;;;15.64;60.50;99216.38;10359831;28;20050;-60
2021/08/01 03:56:16;;;;;;;4.63;3.15;;;;;;;15.63;60.41;99212.94;10369870;28;20049;-60
2021/08/01 04:01:18;;;;;;;6.10;3.42;;;;;;;15.63;60.24;99217.38;10368910;28;20128;-60
2021/08/01 04:06:20;;;;;;;5.93;3.72;;;;;;;15.48;60.32;99214.28;10369605;28;20046;-60
2021/08/01 04:11:22;;;;;;;9.98;3.70;;;;;;;15.13;61.09;99227.19;10367521;28;20521;-59
2021/08/01 04:16:23;;;;;;;7.38;3.67;;;;;;;15.19;61.34;99234.53;10366547;28;20073;-60
2021/08/01 04:21:25;;;;;;;7.72;3.47;;;;;;;15.24;61.27;99221.78;10368685;28;20594;-60
2021/08/01 04:26:27;;;;;;;7.32;3.40;;;;;;;15.38;60.93;99224.84;10369024;28;20056;-59
2021/08/01 04:31:28;;;;;;;6.20;3.42;;;;;;;15.54;60.88;99226.94;10368375;28;20132;-60
2021/08/01 04:36:30;;;;;;;7.47;3.50;;;;;;;15.53;60.79;99235.81;10368520;28;20046;-60
2021/08/01 04:41:32;;;;;;;5.20;3.00;;;;;;;15.51;60.89;99231.66;10367236;28;20128;-60
2021/08/01 04:46:34;;;;;;;6.32;3.25;;;;;;;15.38;61.04;99242.44;10368607;28;20128;-60
2021/08/01 04:51:35;;;;;;;7.53;3.40;;;;;;;15.38;60.92;99242.44;10368004;28;20485;-59
2021/08/01 04:56:37;;;;;;;5.55;3.42;;;;;;;15.22;61.63;99240.38;10367221;28;20056;-60
2021/08/01 05:01:39;;;;;;;6.32;3.70;;;;;;;15.43;61.14;99240.22;10354144;28;20571;-60
2021/08/01 05:06:41;;;;;;;7.07;3.30;;;;;;;15.50;60.96;99237.91;10367128;28;20050;-60
2021/08/01 05:11:42;;;;;;;5.70;3.25;;;;;;;15.68;60.40;99230.94;10365862;28;20463;-59
2021/08/01 05:16:44;;;;;;;6.05;3.00;;;;;;;15.92;59.97;99232.16;10366318;28;20075;-59
2021/08/01 05:21:46;;;;;;;6.35;3.20;;;;;;;16.14;59.54;99236.28;10366435;28;20383;-60
2021/08/01 05:26:47;;;;;;;6.88;3.30;;;;;;;16.10;59.74;99235.72;10365667;28;20133;-60
2021/08/01 05:31:49;;;;;;;5.25;3.10;;;;;;;15.83;60.23;99235.66;10366406;28;20137;-60
2021/08/01 05:36:51;;;;;;;6.25;2.90;;;;;;;15.96;60.03;99233.53;10366433;28;20101;-60
2021/08/01 05:41:54;;;;;;;6.03;2.90;;;;;;;16.29;59.48;99231.34;10361094;28;20206;-60
2021/08/01 05:46:55;;;;;;;6.65;3.03;;;;;;;16.49;59.05;99235.63;10364556;28;20140;-60
2021/08/01 05:51:57;;;;;;;6.53;3.10;;;;;;;16.45;58.67;99247.44;10365932;28;20057;-60
2021/08/01 05:56:59;;;;;;;5.22;2.80;;;;;;;16.51;58.89;99241.59;10365733;28;20054;-60
2021/08/01 06:02:01;;;;;;;4.70;2.58;;;;;;;16.55;58.75;99238.50;10380514;28;20132;-60
2021/08/01 06:07:02;;;;;;;4.70;2.80;;;;;;;16.86;57.94;99241.69;10380263;28;20042;-60
2021/08/01 06:12:05;;;;;;;8.63;2.75;;;;;;;17.14;57.52;99235.38;10355475;28;20050;-60
2021/08/01 06:17:07;;;;;;;7.82;2.67;;;;;;;17.35;57.07;99238.59;10330315;28;20148;-60
2021/08/01 06:22:09;;;;;;;4.97;2.60;;;;;;;17.58;56.22;99245.09;10380305;28;20249;-60
2021/08/01 06:27:11;;;;;;;5.38;2.80;;;;;;;17.72;55.44;99244.53;10358750;28;20137;-60
2021/08/01 06:32:12;;;;;;;4.35;2.40;;;;;;;17.89;55.04;99240.22;10364395;28;20137;-60
2021/08/01 06:37:14;;;;;;;8.52;2.75;;;;;;;18.13;54.74;99247.47;10364017;28;20140;-60
2021/08/01 06:42:16;;;;;;;4.78;2.40;;;;;;;18.31;54.18;99253.56;10364113;28;20069;-60
2021/08/01 06:47:17;;;;;;;5.72;2.47;;;;;;;18.64;53.56;99253.59;10364129;28;20049;-60
2021/08/01 06:52:19;;;;;;;5.90;2.35;;;;;;;19.04;52.41;99260.03;10377825;28;20050;-60
2021/08/01 06:57:22;;;;;;;5.03;2.30;;;;;;;19.84;50.82;99256.69;10350588;28;20124;-60
2021/08/01 07:02:24;;;;;;;4.57;2.38;;;;;;;19.88;50.27;99264.16;10326875;28;20046;-60
2021/08/01 07:07:25;;;;;;;4.25;2.50;;;;;;;19.56;50.54;99250.88;10328859;28;20443;-60
2021/08/01 07:12:27;;;;;;;5.35;2.20;;;;;;;19.57;50.65;99249.03;10337424;28;20111;-60
2021/08/01 07:17:29;;;;;;;7.10;2.50;;;;;;;19.47;50.73;99251.84;10355968;28;20096;-59
2021/08/01 07:22:32;;;;;;;4.63;2.58;;;;;;;19.52;50.57;99256.66;10333423;28;20133;-60
2021/08/01 07:27:35;;;;;;;8.95;2.90;;;;;;;19.79;49.78;99251.00;10342322;28;20050;-60
2021/08/01 07:32:36;;;;;;;5.70;2.75;;;;;;;20.32;49.16;99248.66;10353010;28;20594;-59
2021/08/01 07:37:39;;;;;;;4.60;2.78;;;;;;;20.70;47.66;99244.41;10357292;28;20050;-59
2021/08/01 07:42:40;;;;;;;4.43;2.60;;;;;;;20.75;47.98;99240.22;10327318;28;20586;-60
2021/08/01 07:47:43;;;;;;;5.85;2.88;;;;;;;20.93;46.79;99235.50;10329778;28;20454;-59
2021/08/01 07:52:44;;;;;;;4.32;2.60;;;;;;;23.03;42.85;99228.25;10346795;28;20048;-60
2021/08/01 07:57:46;;;;;;;5.07;2.65;;;;;;;23.38;41.68;99236.25;10337438;28;20048;-60
2021/08/01 08:02:48;;;;;;;4.88;2.50;;;;;;;22.72;42.72;99239.13;10344911;28;20490;-60
2021/08/01 08:07:50;;;;;;;4.78;2.17;;;;;;;22.96;42.38;99222.84;10332544;28;20401;-60
2021/08/01 08:12:52;;;;;;;5.43;2.30;;;;;;;22.46;42.95;99234.28;10368715;28;20157;-60
2021/08/01 08:17:54;;;;;;;5.05;2.38;;;;;;;22.34;43.36;99238.41;10366770;28;20391;-59
2021/08/01 08:22:55;;;;;;;6.35;2.30;;;;;;;22.51;43.20;99231.91;10368638;28;20100;-59
2021/08/01 08:27:57;;;;;;;6.13;2.40;;;;;;;23.72;40.69;99230.22;10367196;28;20088;-59
2021/08/01 08:32:59;;;;;;;4.90;2.15;;;;;;;24.32;39.52;99231.50;10355580;28;20133;-59
2021/08/01 08:38:00;;;;;;;4.43;2.10;;;;;;;23.67;40.39;99232.66;10354893;28;20493;-59
2021/08/01 08:43:02;;;;;;;3.50;2.20;;;;;;;22.55;42.24;99248.34;10365748;28;20082;-59
2021/08/01 08:48:05;;;;;;;6.03;2.10;;;;;;;23.32;41.64;99237.00;10349531;28;20129;-58
2021/08/01 08:53:07;;;;;;;3.70;2.00;;;;;;;23.70;40.54;99234.91;10365094;28;20046;-59
2021/08/01 08:58:09;;;;;;;3.22;2.00;;;;;;;23.97;40.09;99227.94;10367047;28;20439;-59
2021/08/01 09:03:10;;;;;;;3.63;2.15;;;;;;;24.54;39.21;99227.72;10367522;28;20126;-58
2021/08/01 09:08:12;;;;;;;5.40;2.00;;;;;;;24.56;38.08;99228.34;10344931;28;20123;-59
2021/08/01 09:13:43;;;;;;;3.17;1.80;;;;;;;25.25;36.29;99229.88;10357821;28;20054;-59
2021/08/01 09:18:46;;;;;;;4.47;1.90;;;;;;;25.71;35.84;99230.00;10366658;28;20050;-59
2021/08/01 09:23:50;;;;;;;4.05;1.90;;;;;;;25.52;35.80;99245.03;10365009;28;20046;-59
2021/08/01 09:29:04;;;;;;;5.22;1.80;;;;;;;25.48;35.48;99235.75;10331730;28;20171;-59
2021/08/01 09:34:27;;;;;;;3.30;1.83;;;;;;;25.78;35.08;99230.81;10344661;28;20064;-59
2021/08/01 09:39:42;;;;;;;3.47;1.65;;;;;;;26.42;32.79;99217.59;10363958;28;20069;-60
2021/08/01 09:44:44;;;;;;;3.50;1.80;;;;;;;25.75;33.88;99221.31;10362770;28;20129;-59
2021/08/01 09:50:04;;;;;;;4.82;1.80;;;;;;;24.83;35.48;99227.50;10325790;28;20063;-59
2021/08/01 09:55:15;;;;;;;4.30;1.90;;;;;;;24.78;35.27;99221.91;10330010;28;20547;-59
2021/08/01 10:00:17;;;;;;;5.68;1.90;;;;;;;25.11;35.17;99220.19;10364581;28;20134;-59
2021/08/01 10:05:21;;;;;;;5.03;1.90;;;;;;;25.72;33.94;99213.72;10357636;28;20085;-59
2021/08/01 10:10:25;;;;;;;4.10;1.80;;;;;;;25.61;33.40;99205.50;10325434;28;20474;-59
2021/08/01 10:15:27;;;;;;;4.20;1.70;;;;;;;26.21;32.50;99202.56;10325936;28;20074;-59
2021/08/01 10:20:30;;;;;;;3.55;1.73;;;;;;;25.99;33.16;99190.44;10327295;28;20137;-59
2021/08/01 10:25:33;;;;;;;3.58;1.60;;;;;;;26.63;32.08;99193.19;10324748;28;20478;-59
2021/08/01 10:30:40;;;;;;;3.55;1.60;;;;;;;25.67;33.54;99193.94;10324448;28;20058;-59
2021/08/01 10:35:49;;;;;;;4.80;2.00;;;;;;;26.13;32.01;99185.88;10324769;28;20135;-59
2021/08/01 10:41:01;;;;;;;4.78;1.85;;;;;;;25.96;33.21;99188.19;10342792;28;20053;-59
2021/08/01 10:46:03;;;;;;;6.25;2.15;;;;;;;25.22;34.35;99194.69;10363035;28;20550;-59
2021/08/01 10:51:05;;;;;;;3.70;2.13;;;;;;;24.86;34.92;99192.31;10323443;28;20062;-59
2021/08/01 10:56:06;;;;;;;4.43;1.60;;;;;;;24.93;34.70;99182.47;10340067;28;20053;-59
2021/08/01 11:01:08;;;;;;;4.15;1.75;;;;;;;25.37;33.63;99177.44;10364169;28;20128;-58
2021/08/01 11:06:36;;;;;;;4.97;1.80;;;;;;;25.32;32.34;99171.03;10377550;28;20054;-59
2021/08/01 11:11:38;;;;;;;3.17;1.50;;;;;;;25.32;32.67;99177.22;10322981;28;20061;-59
2021/08/01 11:16:40;;;;;;;3.97;1.40;;;;;;;24.96;31.50;99163.31;10323869;28;20977;-59
2021/08/01 11:21:41;;;;;;;3.90;1.50;;;;;;;24.62;33.00;99166.06;10361404;28;20470;-59
2021/08/01 11:27:04;;;;;;;3.58;1.50;;;;;;;24.73;32.39;99171.72;10362349;28;20498;-59
2021/08/01 11:32:08;;;;;;;6.63;1.60;;;;;;;24.62;33.23;99172.25;10327640;28;20145;-59
2021/08/01 11:37:20;;;;;;;3.15;1.60;;;;;;;24.51;35.38;99177.34;10323934;28;20141;-59
2021/08/01 11:42:24;;;;;;;3.25;1.63;;;;;;;24.84;35.43;99179.16;10336696;28;20100;-59
2021/08/01 11:47:27;;;;;;;2.22;1.40;;;;;;;25.20;33.60;99164.63;10364572;28;20050;-59
2021/08/01 11:52:42;;;;;;;3.97;1.50;;;;;;;24.54;33.18;99163.56;10330362;28;20129;-59
2021/08/01 11:57:49;;;;;;;3.30;1.45;;;;;;;23.78;35.38;99165.34;10359787;28;20406;-58
2021/08/01 12:02:54;;;;;;;3.60;1.60;;;;;;;23.50;36.73;99175.19;10370206;28;20157;-58
2021/08/01 12:07:56;;;;;;;3.08;1.80;;;;;;;23.20;37.53;99161.16;10359777;28;20050;-59
2021/08/01 12:12:59;;;;;;;3.42;1.60;;;;;;;23.57;37.15;99154.72;10344884;28;20050;-59
2021/08/01 12:18:02;;;;;;;1.83;1.30;;;;;;;23.74;35.50;99141.91;10352094;28;20520;-59
2021/08/01 12:23:05;;;;;;;3.85;1.38;;;;;;;23.60;36.10;99142.81;10368827;28;20185;-59
2021/08/01 12:28:07;;;;;;;2.20;1.25;;;;;;;23.73;35.66;99140.25;10329148;28;20132;-59
2021/08/01 12:33:08;;;;;;;3.53;1.20;;;;;;;24.15;34.98;99132.97;10330365;28;20068;-59
2021/08/01 12:38:23;;;;;;;4.18;1.45;;;;;;;23.84;34.22;99143.22;10328324;28;20648;-59
2021/08/01 12:43:27;;;;;;;4.97;1.73;;;;;;;23.91;34.22;99133.41;10362173;28;20137;-59
2021/08/01 12:48:29;;;;;;;5.65;1.42;;;;;;;23.97;33.45;99126.44;10367104;28;20082;-59
2021/08/01 12:53:32;;;;;;;3.13;1.33;;;;;;;24.52;33.72;99130.88;10368506;28;20463;-59
2021/08/01 12:58:38;;;;;;;4.07;1.40;;;;;;;24.51;32.92;99129.22;10367328;28;20046;-59
2021/08/01 13:03:45;;;;;;;2.53;1.40;;;;;;;24.84;32.65;99128.31;10340941;28;20047;-59
2021/08/01 13:08:51;;;;;;;2.58;1.30;;;;;;;24.14;32.39;99136.63;10327038;28;20146;-59
2021/08/01 13:13:54;;;;;;;3.60;1.50;;;;;;;23.66;33.72;99142.88;10337423;28;20132;-59
2021/08/01 13:19:10;;;;;;;3.80;1.30;;;;;;;23.94;33.16;99140.22;10367076;28;20046;-59
2021/08/01 13:24:14;;;;;;;3.90;1.30;;;;;;;23.45;34.24;99137.59;10367190;28;20138;-59
2021/08/01 13:29:22;;;;;;;3.20;1.40;;;;;;;23.84;33.84;99132.53;10363616;28;20133;-59
2021/08/01 13:34:37;;;;;;;3.88;1.30;;;;;;;23.95;34.28;99134.66;10332837;28;20132;-59
2021/08/01 13:39:41;;;;;;;3.80;1.40;;;;;;;24.19;33.70;99128.88;10333651;28;20050;-59
2021/08/01 13:44:43;;;;;;;3.70;1.30;;;;;;;24.08;33.19;99129.41;10366756;28;20116;-59
2021/08/01 13:49:51;;;;;;;4.47;1.67;;;;;;;24.07;32.63;99132.28;10361885;28;20132;-59
2021/08/01 13:54:56;;;;;;;4.30;1.45;;;;;;;24.06;32.86;99142.13;10332813;28;20072;-59
2021/08/01 13:59:58;;;;;;;2.95;1.33;;;;;;;24.33;32.69;99147.66;10364781;28;20073;-59
2021/08/01 14:05:01;;;;;;;4.18;1.40;;;;;;;24.37;32.48;99133.69;10365546;28;20441;-59
2021/08/01 14:10:03;;;;;;;3.53;1.60;;;;;;;24.45;32.04;99135.38;10363895;28;20064;-59
2021/08/01 14:15:08;;;;;;;4.15;1.27;;;;;;;24.29;31.02;99139.19;10365459;28;20124;-59
2021/08/01 14:20:11;;;;;;;3.92;1.30;;;;;;;24.29;30.85;99141.84;10354854;28;20097;-58
2021/08/01 14:25:13;;;;;;;3.50;1.40;;;;;;;24.23;31.61;99148.00;10324766;28;20054;-59
2021/08/01 14:30:14;;;;;;;5.22;1.67;;;;;;;24.39;30.46;99147.66;10333967;28;20060;-59
2021/08/01 14:35:16;;;;;;;3.35;1.38;;;;;;;24.46;30.20;99131.66;10363212;28;20129;-58
2021/08/01 14:40:21;;;;;;;2.78;1.40;;;;;;;24.48;30.36;99130.44;10375959;28;20137;-58
2021/08/01 14:45:23;;;;;;;17.30;1.63;;;;;;;24.57;30.38;99137.25;10347271;28;20064;-58
2021/08/01 14:55:32;;;;;;;3.80;1.40;;;;;;;24.85;30.24;99145.22;10360270;28;20133;-59
2021/08/01 15:00:50;;;;;;;5.22;1.63;;;;;;;24.96;29.25;99128.53;10360946;28;20053;-59
2021/08/01 15:06:00;;;;;;;8.48;1.60;;;;;;;25.05;29.71;99140.72;10349240;28;20054;-59
2021/08/01 15:11:09;;;;;;;3.78;1.38;;;;;;;25.20;30.11;99148.56;10336515;28;20054;-59
2021/08/01 15:16:11;;;;;;;5.82;1.38;;;;;;;25.02;30.16;99143.78;10321984;28;20108;-59
2021/08/01 15:21:18;;;;;;;5.45;1.45;;;;;;;24.83;29.94;99145.41;10343505;28;20046;-59
2021/08/01 15:26:20;;;;;;;4.30;1.40;;;;;;;24.64;30.71;99156.00;10359681;28;20050;-59
2021/08/01 15:31:23;;;;;;;2.20;1.20;;;;;;;24.76;30.98;99147.22;10282137;28;1162469;-59
2021/08/01 15:36:26;;;;;;;2.22;1.38;;;;;;;24.66;31.32;99156.63;10334576;28;20058;-59
2021/08/01 15:41:29;;;;;;;1.85;1.20;;;;;;;24.32;32.14;99157.50;10362818;28;20128;-59
2021/08/01 15:46:34;;;;;;;4.53;1.30;;;;;;;23.73;32.74;99162.47;10346182;28;20137;-59
2021/08/01 15:51:41;;;;;;;5.00;1.70;;;;;;;23.48;33.40;99154.03;10322877;28;20073;-59
2021/08/01 15:56:48;;;;;;;7.20;1.60;;;;;;;23.72;33.37;99150.09;10326171;28;20050;-59
2021/08/01 16:01:51;;;;;;;7.95;1.50;;;;;;;23.67;33.09;99154.38;10322492;28;20129;-59
2021/08/01 16:06:55;;;;;;;10.50;7.72;;;;;;;23.57;33.29;99161.91;10340155;28;20481;-59
2021/08/01 16:11:58;;;;;;;4.15;1.80;;;;;;;23.79;33.68;99166.19;10361935;28;20125;-59
2021/08/01 16:17:09;;;;;;;4.68;1.90;;;;;;;23.65;33.97;99165.28;10360742;28;20046;-59
2021/08/01 16:22:11;;;;;;;7.20;2.00;;;;;;;23.39;34.67;99175.69;10333773;28;20930;-59
2021/08/01 16:27:13;;;;;;;3.83;1.58;;;;;;;22.55;37.76;99198.53;10322493;28;20046;-59
2021/08/01 16:32:20;;;;;;;2.95;1.40;;;;;;;21.92;39.99;99208.84;10328465;28;20133;-58
2021/08/01 16:37:22;;;;;;;4.75;1.70;;;;;;;21.34;41.21;99208.66;10329908;28;20526;-59
2021/08/01 16:42:51;;;;;;;4.25;1.30;;;;;;;21.24;42.36;99214.19;10328691;28;20133;-59
2021/08/01 16:48:16;;;;;;;2.75;1.40;;;;;;;21.05;43.56;99236.75;10329434;28;20141;-59
2021/08/01 16:54:01;;;;;;;5.95;1.60;;;;;;;20.71;44.96;99256.69;10328115;28;20074;-59
2021/08/01 16:59:07;;;;;;;5.82;2.05;;;;;;;20.52;48.13;99262.38;10410738;28;20492;-59
2021/08/01 17:04:25;;;;;;;4.78;1.75;;;;;;;19.95;51.50;99285.56;10372002;28;20442;-59
2021/08/01 17:09:29;;;;;;;9.57;2.30;;;;;;;19.69;53.51;99304.25;10348331;28;20510;-59
2021/08/01 17:14:31;;;;;;;6.20;2.15;;;;;;;19.38;54.34;99311.16;10390935;28;20077;-59
2021/08/01 17:19:34;;;;;;;5.13;2.10;;;;;;;19.03;55.19;99329.94;10370788;28;20514;-58
2021/08/01 17:24:38;;;;;;;6.22;2.35;;;;;;;18.69;56.58;99337.03;10365611;28;20070;-59
2021/08/01 17:29:41;;;;;;;5.88;2.40;;;;;;;18.64;57.31;99350.75;10361047;28;20149;-59
2021/08/01 17:34:43;;;;;;;5.90;2.38;;;;;;;18.61;57.85;99345.75;10325079;28;20137;-58
2021/08/01 17:39:48;;;;;;;4.30;1.83;;;;;;;18.59;57.64;99345.06;10326477;28;20534;-59
2021/08/01 17:44:52;;;;;;;5.20;1.95;;;;;;;18.56;57.65;99338.28;10365018;28;20058;-59
2021/08/01 17:49:56;;;;;;;3.90;2.20;;;;;;;18.72;57.87;99332.25;10363387;28;20046;-59
2021/08/01 17:55:00;;;;;;;2.80;1.90;;;;;;;18.79;57.72;99340.41;10352033;28;20252;-59
2021/08/01 18:00:01;;;;;;;4.38;1.90;;;;;;;19.01;57.39;99345.94;10380255;28;20050;-58
2021/08/01 18:05:04;;;;;;;2.90;1.85;;;;;;;19.02;57.18;99345.00;10364121;28;20054;-58
2021/08/01 18:10:07;;;;;;;3.67;2.00;;;;;;;18.99;57.57;99355.06;10364685;28;20121;-59
2021/08/01 18:15:13;;;;;;;3.65;2.05;;;;;;;18.92;57.97;99344.28;10362290;28;20196;-59
2021/08/01 18:20:19;;;;;;;4.15;2.00;;;;;;;18.90;57.51;99351.56;10344059;28;20537;-58
2021/08/01 18:25:24;;;;;;;5.78;2.17;;;;;;;18.87;57.35;99351.03;10336508;28;20056;-58
2021/08/01 18:30:25;;;;;;;2.90;1.90;;;;;;;18.81;57.53;99349.03;10363641;28;20092;-58
2021/08/01 18:35:27;;;;;;;3.58;1.95;;;;;;;18.58;57.50;99359.31;10361877;28;20126;-59
2021/08/01 18:40:29;;;;;;;6.20;2.15;;;;;;;18.41;57.60;99368.97;10363954;28;20063;-59
2021/08/01 18:45:31;;;;;;;3.25;1.80;;;;;;;18.29;58.07;99380.78;10347796;28;20129;-58
2021/08/01 18:50:39;;;;;;;4.93;1.85;;;;;;;18.14;58.71;99384.09;10323525;28;20046;-58
2021/08/01 18:55:45;;;;;;;2.97;1.60;;;;;;;18.10;58.20;99394.16;10336068;28;20136;-59
2021/08/01 19:00:49;;;;;;;3.70;1.90;;;;;;;18.21;58.20;99393.13;10363042;28;20056;-59
2021/08/01 19:05:51;;;;;;;2.85;1.90;;;;;;;18.19;58.30;99398.59;10346672;28;20452;-59
2021/08/01 19:10:53;;;;;;;5.88;1.90;;;;;;;18.14;58.12;99407.91;10322661;28;20487;-59
2021/08/01 19:16:10;;;;;;;4.32;1.83;;;;;;;17.91;58.83;99410.22;10322907;28;20081;-59
2021/08/01 19:21:16;;;;;;;4.40;1.80;;;;;;;17.92;58.61;99411.00;10322313;28;20060;-58
2021/08/01 19:26:24;;;;;;;4.25;1.90;;;;;;;17.88;58.57;99428.16;10341509;28;20125;-59
2021/08/01 19:31:36;;;;;;;6.57;2.05;;;;;;;17.70;59.29;99423.72;10361501;28;20058;-59
2021/08/01 19:36:41;;;;;;;4.30;1.80;;;;;;;17.53;59.22;99432.44;10361185;28;20760;-59
2021/08/01 19:41:44;;;;;;;3.35;1.90;;;;;;;17.56;59.24;99432.16;10363611;28;20121;-58
2021/08/01 19:46:49;;;;;;;4.25;2.10;;;;;;;17.44;59.38;99441.25;10341243;28;20053;-59
2021/08/01 19:51:52;;;;;;;4.10;2.03;;;;;;;17.38;59.87;99439.19;10322986;28;20052;-59
2021/08/01 19:56:56;;;;;;;5.13;2.00;;;;;;;17.42;60.02;99434.44;10335879;28;20244;-58
2021/08/01 20:01:58;;;;;;;7.35;2.25;;;;;;;17.30;60.33;99443.50;10362494;28;20491;-59
2021/08/01 20:07:00;;;;;;;4.65;2.10;;;;;;;17.22;60.48;99438.13;10346735;28;20146;-59
2021/08/01 20:12:02;;;;;;;3.80;2.10;;;;;;;17.15;60.98;99445.78;10330313;28;20074;-59
2021/08/01 20:17:04;;;;;;;5.82;2.10;;;;;;;17.06;60.85;99449.28;10335969;28;20137;-58
2021/08/01 20:22:06;;;;;;;5.43;2.03;;;;;;;17.11;60.68;99451.50;10326768;28;20673;-59
2021/08/01 20:27:08;;;;;;;5.30;2.28;;;;;;;17.08;60.83;99451.81;10329437;28;20058;-58
2021/08/01 20:32:10;;;;;;;5.22;2.10;;;;;;;16.99;60.85;99451.69;10326687;28;20586;-59
2021/08/01 20:37:11;;;;;;;7.82;2.50;;;;;;;16.87;61.34;99444.88;10338418;28;20141;-58
2021/08/01 20:42:13;;;;;;;8.77;2.17;;;;;;;16.74;61.55;99451.47;10367907;28;20045;-58
2021/08/01 20:47:15;;;;;;;4.72;2.20;;;;;;;16.64;61.89;99445.38;10348184;28;20558;-59
2021/08/01 20:52:17;;;;;;;3.92;2.10;;;;;;;16.63;61.99;99446.38;10328361;28;20080;-58
2021/08/01 20:57:18;;;;;;;6.13;2.30;;;;;;;16.56;62.04;99442.59;10343924;28;20140;-58
2021/08/01 21:02:20;;;;;;;4.70;2.20;;;;;;;16.41;62.44;99447.44;10367430;28;20060;-58
2021/08/01 21:07:22;;;;;;;10.32;2.80;;;;;;;16.36;62.83;99454.97;10347699;28;20046;-59
2021/08/01 21:12:23;;;;;;;3.47;2.22;;;;;;;16.30;62.93;99452.03;10327666;28;20547;-59
2021/08/01 21:17:25;;;;;;;4.78;2.30;;;;;;;16.20;63.01;99446.78;10339138;28;20064;-59
2021/08/01 21:22:27;;;;;;;6.47;2.40;;;;;;;16.09;63.47;99452.19;10367178;28;20038;-59
2021/08/01 21:27:31;;;;;;;4.50;2.20;;;;;;;16.07;63.22;99452.31;10365052;28;20510;-59
2021/08/01 21:32:34;;;;;;;6.72;2.72;;;;;;;16.01;63.75;99466.06;10366961;28;20478;-59
2021/08/01 21:37:36;;;;;;;5.20;2.60;;;;;;;15.84;64.27;99463.25;10351607;28;20137;-59
2021/08/01 21:42:38;;;;;;;4.18;2.38;;;;;;;15.85;64.10;99468.41;10326717;28;20096;-59
2021/08/01 21:47:39;;;;;;;5.85;2.47;;;;;;;16.02;63.65;99470.34;10339375;28;20066;-59
2021/08/01 21:52:42;;;;;;;3.75;2.35;;;;;;;15.94;63.53;99472.84;10365807;28;20081;-59
2021/08/01 21:57:44;;;;;;;3.67;2.20;;;;;;;15.92;63.90;99474.78;10356063;28;20417;-59
2021/08/01 22:02:49;;;;;;;3.92;2.10;;;;;;;15.83;64.11;99472.13;10382122;28;20133;-59
2021/08/01 22:07:52;;;;;;;6.53;2.13;;;;;;;15.80;64.05;99477.66;10348998;28;20064;-59
2021/08/01 22:12:54;;;;;;;5.57;2.55;;;;;;;15.56;64.58;99479.81;10331778;28;20051;-59
2021/08/01 22:17:55;;;;;;;5.72;2.30;;;;;;;15.54;64.42;99481.75;10349548;28;20073;-59
2021/08/01 22:22:57;;;;;;;4.13;2.20;;;;;;;15.36;64.95;99492.06;10352399;28;20133;-59
2021/08/01 22:28:01;;;;;;;3.72;2.70;;;;;;;15.17;65.78;99499.88;10373212;28;20050;-59
2021/08/01 22:33:03;;;;;;;6.28;2.67;;;;;;;15.11;65.57;99503.88;10353347;28;20058;-59
2021/08/01 22:38:06;;;;;;;6.85;2.50;;;;;;;15.20;65.49;99516.28;10356829;28;20481;-59
2021/08/01 22:43:08;;;;;;;4.43;2.30;;;;;;;15.22;65.46;99509.06;10343070;28;20054;-59
2021/08/01 22:48:13;;;;;;;3.40;2.22;;;;;;;15.35;65.11;99511.47;10359491;28;20129;-59
2021/08/01 22:53:18;;;;;;;4.35;2.50;;;;;;;15.28;65.37;99515.59;10361075;28;20136;-59
2021/08/01 22:58:20;;;;;;;4.97;2.50;;;;;;;15.19;65.53;99529.56;10357439;28;20144;-59
2021/08/01 23:03:31;;;;;;;5.57;2.42;;;;;;;15.25;65.99;99523.75;10360585;28;20125;-59
2021/08/01 23:08:36;;;;;;;4.88;2.38;;;;;;;15.40;65.27;99525.94;10348088;28;20125;-59
2021/08/01 23:13:56;;;;;;;4.80;2.20;;;;;;;15.39;64.89;99521.63;10361518;28;20462;-60
2021/08/01 23:19:01;;;;;;;4.45;2.35;;;;;;;15.31;65.02;99518.81;10362580;28;20133;-59
2021/08/01 23:24:08;;;;;;;4.97;2.13;;;;;;;15.39;65.04;99523.41;10361933;28;20141;-59
2021/08/01 23:29:12;;;;;;;4.70;2.30;;;;;;;15.23;65.05;99515.16;10362621;28;20593;-59
2021/08/01 23:34:14;;;;;;;3.75;2.13;;;;;;;15.18;65.33;99514.72;10361597;28;20038;-59
2021/08/01 23:39:20;;;;;;;5.85;2.50;;;;;;;15.16;65.44;99514.03;10365044;28;20356;-60